createdAt,value
2018-03-22T00:00:49.915Z,20.00
2018-03-22T00:03:17.522Z,19.40
2018-03-22T00:05:45.486Z,20.77
2018-03-22T00:08:13.610Z,20.17
2018-03-22T00:10:41.218Z,19.50
2018-03-22T00:13:08.783Z,18.97
2018-03-22T00:15:36.390Z,21.37
2018-03-22T00:18:04.272Z,20.70
2018-03-22T00:20:32.112Z,19.77
2018-03-22T00:22:59.722Z,18.97
2018-03-22T00:25:27.301Z,18.07
2018-03-22T00:27:54.868Z,19.37
2018-03-22T00:30:22.977Z,18.47
2018-03-22T00:32:50.583Z,18.97
2018-03-22T00:35:18.185Z,17.57
2018-03-22T00:37:45.788Z,20.20
2018-03-22T00:40:13.346Z,18.03
2018-03-22T00:42:41.078Z,18.23
2018-03-22T00:45:08.637Z,19.10
2018-03-22T00:47:36.277Z,18.27
2018-03-22T00:50:03.844Z,20.13
2018-03-22T00:52:31.443Z,19.90
2018-03-22T00:54:59.297Z,19.73
2018-03-22T00:57:27.549Z,19.73
2018-03-22T00:59:55.537Z,19.70
2018-03-22T01:02:23.168Z,20.80
2018-03-22T01:04:51.161Z,19.47
2018-03-22T01:07:18.730Z,18.10
2018-03-22T01:09:46.694Z,19.50
2018-03-22T01:12:14.268Z,19.20
2018-03-22T01:14:41.893Z,23.57
2018-03-22T01:17:09.461Z,19.57
2018-03-22T01:19:37.079Z,20.20
2018-03-22T01:22:04.694Z,21.53
2018-03-22T01:24:32.995Z,19.83
2018-03-22T01:27:00.557Z,21.07
2018-03-22T01:29:28.177Z,20.63
2018-03-22T01:31:55.984Z,18.73
2018-03-22T01:34:23.553Z,21.63
2018-03-22T01:36:51.162Z,19.53
2018-03-22T01:39:18.725Z,19.87
2018-03-22T01:41:47.132Z,21.57
2018-03-22T01:44:14.702Z,21.63
2018-03-22T01:46:42.314Z,18.80
2018-03-22T01:49:10.126Z,20.80
2018-03-22T01:51:38.141Z,18.57
2018-03-22T01:54:05.749Z,19.13
2018-03-22T01:56:33.590Z,22.57
2018-03-22T01:59:01.153Z,21.37
2018-03-22T02:01:28.747Z,20.33
2018-03-22T02:03:56.909Z,18.90
2018-03-22T02:06:24.733Z,20.03
2018-03-22T02:08:53.051Z,20.83
2018-03-22T02:11:20.981Z,21.40
2018-03-22T02:13:48.688Z,18.47
2018-03-22T02:16:16.253Z,18.10
2018-03-22T02:18:43.857Z,21.33
2018-03-22T02:21:26.922Z,19.13
2018-03-22T02:24:10.173Z,16.90
2018-03-22T02:26:52.825Z,18.47
2018-03-22T02:29:35.572Z,16.93
2018-03-22T02:32:18.222Z,19.20
2018-03-22T02:35:01.585Z,17.33
2018-03-22T02:37:44.638Z,18.53
2018-03-22T02:40:27.868Z,17.13
2018-03-22T02:43:10.182Z,17.50
2018-03-22T02:45:52.774Z,15.13
2018-03-22T02:48:35.942Z,17.40
2018-03-22T02:51:18.330Z,18.97
2018-03-22T02:54:01.283Z,18.53
2018-03-22T02:56:44.309Z,16.30
2018-03-22T02:59:27.054Z,18.03
2018-03-22T03:02:09.860Z,17.37
2018-03-22T03:04:52.878Z,16.27
2018-03-22T03:07:35.534Z,16.47
2018-03-22T03:10:18.850Z,17.07
2018-03-22T03:12:46.454Z,16.60
2018-03-22T03:15:29.288Z,17.93
2018-03-22T03:18:12.946Z,17.10
2018-03-22T03:20:55.985Z,17.60
2018-03-22T03:23:38.729Z,17.53
2018-03-22T03:26:21.362Z,18.23
2018-03-22T03:29:03.958Z,19.50
2018-03-22T03:31:46.559Z,21.27
2018-03-22T03:34:21.467Z,17.70
2018-03-22T03:36:49.661Z,19.43
2018-03-22T03:39:17.220Z,16.87
2018-03-22T03:41:44.817Z,19.20
2018-03-22T03:44:13.136Z,16.97
2018-03-22T03:46:40.746Z,16.60
2018-03-22T03:49:08.306Z,19.83
2018-03-22T03:51:35.907Z,17.40
2018-03-22T03:54:03.473Z,18.43
2018-03-22T03:56:31.078Z,17.07
2018-03-22T03:58:58.636Z,15.40
2018-03-22T04:01:26.233Z,17.67
2018-03-22T04:03:53.784Z,20.00
2018-03-22T04:06:21.397Z,18.77
2018-03-22T04:08:49.831Z,17.00
2018-03-22T04:11:17.436Z,18.43
2018-03-22T04:13:45.010Z,16.97
2018-03-22T04:16:13.009Z,17.20
2018-03-22T04:18:40.627Z,18.37
2018-03-22T04:21:08.192Z,16.93
2018-03-22T04:23:35.817Z,17.43
2018-03-22T04:26:03.387Z,15.93
2018-03-22T04:28:30.953Z,17.10
2018-03-22T04:30:58.560Z,17.20
2018-03-22T04:33:26.162Z,19.47
2018-03-22T04:35:53.717Z,17.37
2018-03-22T04:38:21.641Z,16.43
2018-03-22T04:40:49.204Z,15.70
2018-03-22T04:43:16.822Z,15.37
2018-03-22T04:45:44.390Z,17.47
2018-03-22T04:48:11.945Z,14.10
2018-03-22T04:50:39.549Z,16.70
2018-03-22T04:53:07.866Z,15.77
2018-03-22T04:55:35.438Z,17.47
2018-03-22T04:58:03.049Z,16.13
2018-03-22T05:00:31.112Z,15.73
2018-03-22T05:02:58.678Z,16.17
2018-03-22T05:05:26.770Z,16.77
2018-03-22T05:07:54.614Z,14.50
2018-03-22T05:10:22.230Z,18.27
2018-03-22T05:12:49.790Z,16.17
2018-03-22T05:15:17.363Z,16.63
2018-03-22T05:17:45.389Z,15.33
2018-03-22T05:20:12.990Z,17.50
2018-03-22T05:22:40.562Z,17.17
2018-03-22T05:25:08.368Z,17.30
2018-03-22T05:27:35.924Z,18.73
2018-03-22T05:30:04.300Z,17.20
2018-03-22T05:32:32.465Z,17.53
2018-03-22T05:35:00.061Z,18.93
2018-03-22T05:37:27.696Z,16.80
2018-03-22T05:39:55.301Z,18.27
2018-03-22T05:42:23.342Z,18.00
2018-03-22T05:44:51.595Z,18.23
2018-03-22T05:47:19.352Z,17.00
2018-03-22T05:49:47.239Z,17.58
2018-03-22T05:52:14.862Z,16.73
2018-03-22T05:54:42.430Z,18.50
2018-03-22T05:57:11.388Z,17.87
2018-03-22T05:59:38.949Z,19.63
2018-03-22T06:02:06.582Z,20.50
2018-03-22T06:04:34.137Z,16.47
2018-03-22T06:07:01.873Z,19.55
2018-03-22T06:09:29.956Z,19.98
2018-03-22T06:11:58.042Z,19.37
2018-03-22T06:14:25.638Z,15.87
2018-03-22T06:16:54.066Z,19.03
2018-03-22T06:19:22.636Z,21.23
2018-03-22T06:21:50.197Z,16.97
2018-03-22T06:24:17.861Z,16.13
2018-03-22T06:26:45.550Z,20.20
2018-03-22T06:29:13.674Z,17.93
2018-03-22T06:31:41.237Z,16.07
2018-03-22T06:34:08.862Z,17.10
2018-03-22T06:36:36.446Z,16.98
2018-03-22T06:39:04.351Z,16.93
2018-03-22T06:41:32.130Z,17.13
2018-03-22T06:43:59.743Z,17.20
2018-03-22T06:46:29.014Z,16.20
2018-03-22T06:48:56.632Z,14.68
2018-03-22T06:51:24.253Z,16.65
2018-03-22T06:53:51.839Z,16.57
2018-03-22T06:56:20.215Z,19.73
2018-03-22T06:58:47.912Z,15.83
2018-03-22T07:01:15.513Z,17.67
2018-03-22T07:03:43.136Z,17.63
2018-03-22T07:06:10.826Z,15.88
2018-03-22T07:08:38.540Z,27.00
2018-03-22T07:11:06.219Z,15.63
2018-03-22T07:13:33.773Z,17.27
2018-03-22T07:16:01.395Z,19.73
2018-03-22T07:18:30.186Z,18.45
2018-03-22T07:20:59.089Z,16.23
2018-03-22T07:23:27.570Z,20.13
2018-03-22T07:25:55.195Z,19.15
2018-03-22T07:28:23.290Z,22.60
2018-03-22T07:30:51.055Z,19.20
2018-03-22T07:33:19.123Z,14.20
2018-03-22T07:35:47.377Z,17.73
2018-03-22T07:38:15.188Z,18.48
2018-03-22T07:40:43.477Z,14.97
2018-03-22T07:43:16.637Z,16.67
2018-03-22T07:45:45.080Z,14.45
2018-03-22T07:48:12.872Z,16.50
2018-03-22T07:50:40.440Z,17.83
2018-03-22T07:53:08.091Z,14.07
2018-03-22T07:55:38.073Z,17.83
2018-03-22T07:58:06.304Z,24.58
2018-03-22T08:00:34.041Z,15.80
2018-03-22T08:03:01.679Z,14.93
2018-03-22T08:05:29.251Z,17.70
2018-03-22T08:07:56.849Z,16.67
2018-03-22T08:10:25.253Z,19.53
2018-03-22T08:12:53.673Z,24.77
2018-03-22T08:15:21.283Z,19.23
2018-03-22T08:17:48.865Z,16.13
2018-03-22T08:20:16.798Z,21.98
2018-03-22T08:22:44.373Z,25.93
2018-03-22T08:25:11.993Z,22.83
2018-03-22T08:27:40.512Z,26.37
2018-03-22T08:30:08.157Z,19.07
2018-03-22T08:32:35.815Z,22.40
2018-03-22T08:35:03.492Z,42.05
2018-03-22T08:37:31.052Z,25.10
2018-03-22T08:39:58.670Z,38.15
2018-03-22T08:42:26.864Z,22.27
2018-03-22T08:44:55.944Z,21.90
2018-03-22T08:47:23.613Z,22.50
2018-03-22T08:49:52.127Z,92.68
2018-03-22T08:52:20.553Z,36.35
2018-03-22T08:54:48.478Z,28.20
2018-03-22T08:57:18.242Z,30.63
2018-03-22T08:59:46.301Z,35.40
2018-03-22T09:02:13.870Z,32.08
2018-03-22T09:04:41.486Z,26.70
2018-03-22T09:07:12.997Z,39.88
2018-03-22T09:09:40.637Z,26.47
2018-03-22T09:12:09.609Z,26.13
2018-03-22T09:14:37.189Z,26.65
2018-03-22T09:17:04.815Z,26.10
2018-03-22T09:19:32.451Z,25.50
2018-03-22T09:22:01.045Z,22.90
2018-03-22T09:24:28.857Z,26.37
2018-03-22T09:27:02.105Z,21.17
2018-03-22T09:29:29.713Z,23.83
2018-03-22T09:31:57.321Z,23.47
2018-03-22T09:34:24.942Z,21.33
2018-03-22T09:36:52.503Z,23.13
2018-03-22T09:39:20.120Z,19.50
2018-03-22T09:41:47.933Z,19.97
2018-03-22T09:44:15.537Z,21.27
2018-03-22T09:46:44.023Z,33.57
2018-03-22T09:49:11.665Z,41.50
2018-03-22T09:51:39.273Z,55.17
2018-03-22T09:54:06.850Z,67.93
2018-03-22T09:56:35.257Z,73.10
2018-03-22T09:59:03.680Z,72.10
2018-03-22T10:01:32.004Z,58.67
2018-03-22T10:04:00.440Z,52.17
2018-03-22T10:06:28.420Z,65.53
2018-03-22T10:08:56.058Z,36.97
2018-03-22T10:11:23.641Z,52.97
2018-03-22T10:13:51.208Z,44.47
2018-03-22T10:16:18.834Z,36.03
2018-03-22T10:18:46.419Z,50.57
2018-03-22T10:21:14.034Z,33.80
2018-03-22T10:23:42.392Z,38.33
2018-03-22T10:26:09.970Z,34.27
2018-03-22T10:28:37.695Z,32.50
2018-03-22T10:31:05.272Z,26.03
2018-03-22T10:33:32.916Z,24.03
2018-03-22T10:36:01.536Z,44.42
2018-03-22T10:38:30.618Z,23.50
2018-03-22T10:40:58.371Z,38.63
2018-03-22T10:43:26.019Z,47.27
2018-03-22T10:45:53.647Z,35.75
2018-03-22T10:48:21.685Z,37.70
2018-03-22T10:50:49.306Z,34.37
2018-03-22T10:53:16.962Z,48.67
2018-03-22T10:55:44.539Z,43.47
2018-03-22T10:58:12.185Z,46.30
2018-03-22T11:00:39.854Z,44.53
2018-03-22T11:03:12.936Z,43.38
2018-03-22T11:05:40.616Z,42.42
2018-03-22T11:08:08.395Z,49.10
2018-03-22T11:10:35.961Z,50.20
2018-03-22T11:13:03.577Z,40.07
2018-03-22T11:15:31.943Z,33.87
2018-03-22T11:17:59.513Z,42.37
2018-03-22T11:20:27.384Z,36.70
2018-03-22T11:22:54.995Z,36.43
2018-03-22T11:25:23.042Z,32.67
2018-03-22T11:27:51.693Z,33.77
2018-03-22T11:30:20.469Z,35.93
2018-03-22T11:32:48.567Z,32.95
2018-03-22T11:35:16.174Z,31.77
2018-03-22T11:37:43.770Z,25.13
2018-03-22T11:40:11.959Z,22.70
2018-03-22T11:42:39.524Z,27.43
2018-03-22T11:45:07.268Z,28.50
2018-03-22T11:47:35.993Z,27.10
2018-03-22T11:50:03.601Z,20.47
2018-03-22T11:52:32.435Z,23.00
2018-03-22T11:55:00.053Z,20.03
2018-03-22T11:57:27.659Z,20.07
2018-03-22T11:59:55.275Z,23.07
2018-03-22T12:02:22.856Z,20.37
2018-03-22T12:04:50.461Z,20.50
2018-03-22T12:07:19.004Z,18.83
2018-03-22T12:09:46.556Z,16.03
2018-03-22T12:12:14.845Z,19.20
2018-03-22T12:14:43.885Z,16.90
2018-03-22T12:17:11.925Z,18.27
2018-03-22T12:19:39.486Z,19.17
2018-03-22T12:22:07.084Z,16.13
2018-03-22T12:24:34.631Z,18.52
2018-03-22T12:27:02.264Z,17.80
2018-03-22T12:29:29.822Z,19.12
2018-03-22T12:31:57.449Z,19.20
2018-03-22T12:34:25.033Z,19.03
2018-03-22T12:36:52.805Z,17.70
2018-03-22T12:39:20.563Z,20.47
2018-03-22T12:41:48.152Z,21.23
2018-03-22T12:44:15.712Z,17.03
2018-03-22T12:46:43.328Z,20.67
2018-03-22T12:49:11.804Z,23.10
2018-03-22T12:51:39.878Z,22.40
2018-03-22T12:54:07.502Z,21.35
2018-03-22T12:56:35.218Z,23.87
2018-03-22T12:59:02.825Z,22.20
2018-03-22T13:01:30.436Z,23.70
2018-03-22T13:03:59.107Z,24.45
2018-03-22T13:06:26.668Z,26.83
2018-03-22T13:08:54.268Z,23.87
2018-03-22T13:11:27.790Z,24.30
2018-03-22T13:13:56.934Z,22.50
2018-03-22T13:16:24.796Z,24.43
2018-03-22T13:18:52.577Z,23.12
2018-03-22T13:21:20.346Z,22.13
2018-03-22T13:23:47.944Z,22.25
2018-03-22T13:26:17.080Z,21.43
2018-03-22T13:28:45.311Z,21.60
2018-03-22T13:31:13.700Z,23.70
2018-03-22T13:33:41.504Z,19.80
2018-03-22T13:36:09.101Z,22.67
2018-03-22T13:38:36.763Z,20.70
2018-03-22T13:41:06.912Z,23.30
2018-03-22T13:43:34.476Z,26.47
2018-03-22T13:46:02.083Z,26.70
2018-03-22T13:48:29.734Z,26.20
2018-03-22T13:50:57.337Z,24.63
2018-03-22T13:53:24.896Z,23.50
2018-03-22T13:55:52.497Z,21.53
2018-03-22T13:58:20.180Z,29.43
2018-03-22T14:00:47.732Z,22.37
2018-03-22T14:03:15.464Z,21.40
2018-03-22T14:05:43.080Z,21.37
2018-03-22T14:08:10.667Z,24.20
2018-03-22T14:10:39.185Z,21.87
2018-03-22T14:13:07.115Z,18.20
2018-03-22T14:15:34.679Z,21.17
2018-03-22T14:18:02.298Z,19.83
2018-03-22T14:20:30.718Z,20.80
2018-03-22T14:22:58.313Z,20.60
2018-03-22T14:25:26.417Z,18.33
2018-03-22T14:27:54.869Z,16.77
2018-03-22T14:30:22.420Z,24.50
2018-03-22T14:32:50.894Z,21.33
2018-03-22T14:35:18.531Z,16.87
2018-03-22T14:37:46.087Z,21.87
2018-03-22T14:40:13.656Z,22.63
2018-03-22T14:42:41.334Z,25.77
2018-03-22T14:45:09.376Z,26.30
2018-03-22T14:47:37.187Z,34.90
2018-03-22T14:50:04.785Z,35.53
2018-03-22T14:52:33.325Z,34.77
2018-03-22T14:55:01.082Z,33.87
2018-03-22T14:57:29.487Z,35.17
2018-03-22T14:59:57.196Z,37.93
2018-03-22T15:02:25.667Z,36.07
2018-03-22T15:04:53.277Z,34.47
2018-03-22T15:07:20.853Z,38.37
2018-03-22T15:09:49.347Z,38.43
2018-03-22T15:12:17.277Z,39.13
2018-03-22T15:14:44.875Z,34.23
2018-03-22T15:17:12.483Z,33.17
2018-03-22T15:19:40.445Z,32.27
2018-03-22T15:22:08.000Z,37.17
2018-03-22T15:24:36.131Z,37.03
2018-03-22T15:27:03.688Z,30.80
2018-03-22T15:29:31.238Z,29.30
2018-03-22T15:32:01.114Z,29.73
2018-03-22T15:34:28.914Z,29.40
2018-03-22T15:36:56.459Z,30.10
2018-03-22T15:39:24.202Z,33.07
2018-03-22T15:41:51.806Z,33.20
2018-03-22T15:44:19.380Z,27.43
2018-03-22T15:46:46.967Z,29.03
2018-03-22T15:49:14.551Z,31.53
2018-03-22T15:51:44.128Z,30.47
2018-03-22T15:54:11.675Z,29.03
2018-03-22T15:56:40.085Z,31.80
2018-03-22T15:59:07.848Z,30.57
2018-03-22T16:01:35.587Z,27.33
2018-03-22T16:04:03.976Z,31.20
2018-03-22T16:06:32.990Z,26.13
2018-03-22T16:09:01.254Z,26.33
2018-03-22T16:11:28.802Z,25.17
2018-03-22T16:13:56.407Z,24.37
2018-03-22T16:16:24.036Z,25.87
2018-03-22T16:18:51.641Z,24.60
2018-03-22T16:21:19.206Z,22.27
2018-03-22T16:23:46.761Z,30.00
2018-03-22T16:26:14.375Z,20.00
2018-03-22T16:28:41.931Z,19.77
2018-03-22T16:31:10.441Z,21.37
2018-03-22T16:33:38.100Z,19.70
2018-03-22T16:36:06.695Z,18.80
2018-03-22T16:38:34.551Z,24.07
2018-03-22T16:41:03.349Z,23.40
2018-03-22T16:43:30.976Z,21.23
2018-03-22T16:45:58.796Z,21.73
2018-03-22T16:48:26.540Z,22.30
2018-03-22T16:50:56.409Z,20.67
2018-03-22T16:53:23.988Z,18.80
2018-03-22T16:55:52.259Z,22.20
2018-03-22T16:58:21.267Z,18.27
2018-03-22T17:00:49.481Z,21.50
2018-03-22T17:03:18.424Z,18.43
2018-03-22T17:05:46.466Z,18.53
2018-03-22T17:08:14.142Z,19.03
2018-03-22T17:10:42.596Z,18.40
2018-03-22T17:13:12.111Z,18.43
2018-03-22T17:15:40.881Z,19.57
2018-03-22T17:18:08.473Z,18.70
2018-03-22T17:20:36.335Z,16.53
2018-03-22T17:23:03.897Z,16.30
2018-03-22T17:25:32.512Z,17.17
2018-03-22T17:28:00.248Z,18.17
2018-03-22T17:30:28.688Z,17.60
2018-03-22T17:32:56.762Z,15.60
2018-03-22T17:35:24.722Z,17.30
2018-03-22T17:37:53.954Z,16.60
2018-03-22T17:40:23.065Z,16.37
2018-03-22T17:42:50.729Z,16.33
2018-03-22T17:45:19.717Z,13.67
2018-03-22T17:47:48.333Z,15.97
2018-03-22T17:50:17.021Z,16.03
2018-03-22T17:52:44.879Z,15.83
2018-03-22T17:55:13.355Z,15.67
2018-03-22T17:57:43.071Z,13.20
2018-03-22T18:00:12.816Z,14.90
2018-03-22T18:02:41.044Z,16.53
2018-03-22T18:05:09.853Z,15.63
2018-03-22T18:07:38.978Z,15.67
2018-03-22T18:10:07.237Z,13.50
2018-03-22T18:12:37.407Z,20.77
2018-03-22T18:15:06.743Z,14.13
2018-03-22T18:17:36.486Z,14.70
2018-03-22T18:20:05.859Z,14.87
2018-03-22T18:22:34.782Z,14.77
2018-03-22T18:25:04.601Z,15.27
2018-03-22T18:27:33.021Z,15.93
2018-03-22T18:30:02.569Z,13.83
2018-03-22T18:32:31.013Z,15.90
2018-03-22T18:34:59.435Z,14.57
2018-03-22T18:37:27.770Z,14.30
2018-03-22T18:39:56.200Z,14.43
2018-03-22T18:42:24.993Z,14.70
2018-03-22T18:44:54.037Z,13.30
2018-03-22T18:47:22.935Z,15.43
2018-03-22T18:49:51.375Z,14.93
2018-03-22T18:52:21.626Z,14.43
2018-03-22T18:54:49.635Z,13.70
2018-03-22T18:57:19.918Z,14.73
2018-03-22T18:59:53.431Z,14.17
2018-03-22T19:02:22.029Z,13.57
2018-03-22T19:04:50.685Z,12.00
2018-03-22T19:07:20.224Z,15.53
2018-03-22T19:09:49.903Z,16.50
2018-03-22T19:12:19.713Z,14.83
2018-03-22T19:14:48.584Z,17.83
2018-03-22T19:17:18.206Z,15.47
2018-03-22T19:19:47.094Z,14.87
2018-03-22T19:22:15.872Z,15.27
2018-03-22T19:24:44.475Z,15.27
2018-03-22T19:27:13.260Z,38.90
2018-03-22T19:29:41.534Z,23.13
2018-03-22T19:32:10.344Z,24.97
2018-03-22T19:34:38.503Z,20.40
2018-03-22T19:37:07.957Z,25.27
2018-03-22T19:39:36.588Z,22.23
2018-03-22T19:42:06.278Z,18.90
2018-03-22T19:44:35.466Z,16.47
2018-03-22T19:47:04.577Z,17.90
2018-03-22T19:49:32.864Z,24.80
2018-03-22T19:52:02.400Z,17.30
2018-03-22T19:54:31.717Z,17.73
2018-03-22T19:57:00.689Z,21.80
2018-03-22T19:59:29.081Z,21.63
2018-03-22T20:01:59.355Z,21.77
2018-03-22T20:04:28.036Z,18.57
2018-03-22T20:06:56.045Z,32.33
2018-03-22T20:09:24.522Z,27.63
2018-03-22T20:11:57.101Z,24.33
2018-03-22T20:14:27.376Z,23.23
2018-03-22T20:16:56.545Z,21.00
2018-03-22T20:19:24.877Z,24.37
2018-03-22T20:21:53.189Z,18.53
2018-03-22T20:24:21.828Z,19.83
2018-03-22T20:26:51.118Z,45.03
2018-03-22T20:29:20.117Z,27.43
2018-03-22T20:31:48.798Z,21.80
2018-03-22T20:34:17.040Z,17.27
2018-03-22T20:36:46.367Z,17.10
2018-03-22T20:39:17.242Z,18.30
2018-03-22T20:41:45.110Z,20.10
2018-03-22T20:44:13.002Z,17.17
2018-03-22T20:46:41.197Z,17.10
2018-03-22T20:49:09.169Z,18.37
2018-03-22T20:51:37.726Z,16.50
2018-03-22T20:54:06.210Z,16.93
2018-03-22T20:56:34.259Z,15.20
2018-03-22T20:59:02.477Z,15.37
2018-03-22T21:01:30.094Z,14.17
2018-03-22T21:03:58.182Z,17.00
2018-03-22T21:06:26.402Z,13.37
2018-03-22T21:08:55.128Z,14.87
2018-03-22T21:11:23.624Z,13.37
2018-03-22T21:13:52.536Z,15.67
2018-03-22T21:16:20.494Z,16.97
2018-03-22T21:18:48.079Z,16.20
2018-03-22T21:21:15.825Z,18.43
2018-03-22T21:23:44.254Z,29.53
2018-03-22T21:26:12.776Z,21.37
2018-03-22T21:28:42.392Z,15.60
2018-03-22T21:31:11.496Z,15.07
2018-03-22T21:33:39.760Z,16.20
2018-03-22T21:36:08.696Z,17.70
2018-03-22T21:38:37.321Z,12.50
2018-03-22T21:41:04.889Z,12.33
2018-03-22T21:43:33.123Z,13.73
2018-03-22T21:46:01.561Z,13.20
2018-03-22T21:48:29.476Z,13.70
2018-03-22T21:51:02.729Z,13.37
2018-03-22T21:53:32.280Z,10.20
2018-03-22T21:55:59.862Z,10.50
2018-03-22T21:58:28.385Z,12.07
2018-03-22T22:00:57.800Z,8.87
2018-03-22T22:03:26.779Z,10.13
2018-03-22T22:05:54.889Z,10.63
2018-03-22T22:08:22.815Z,9.73
2018-03-22T22:10:50.411Z,9.57
2018-03-22T22:13:18.827Z,8.53
2018-03-22T22:15:47.281Z,10.93
2018-03-22T22:18:16.066Z,11.07
2018-03-22T22:20:44.054Z,9.43
2018-03-22T22:23:11.605Z,11.93
2018-03-22T22:25:39.193Z,11.83
2018-03-22T22:28:07.175Z,11.43
2018-03-22T22:30:35.064Z,8.97
2018-03-22T22:33:03.314Z,11.37
2018-03-22T22:35:30.909Z,16.63
2018-03-22T22:37:59.292Z,12.07
2018-03-22T22:40:27.211Z,10.60
2018-03-22T22:42:54.820Z,12.07
2018-03-22T22:45:22.372Z,13.50
2018-03-22T22:47:49.930Z,8.07
2018-03-22T22:50:18.866Z,9.80
2018-03-22T22:52:48.164Z,8.67
2018-03-22T22:55:15.713Z,8.97
2018-03-22T22:57:43.310Z,9.43
2018-03-22T23:00:10.858Z,8.13
2018-03-22T23:02:38.448Z,7.57
2018-03-22T23:05:06.001Z,9.07
2018-03-22T23:07:33.592Z,8.23
2018-03-22T23:10:01.179Z,6.33
2018-03-22T23:12:28.728Z,7.27
2018-03-22T23:14:56.311Z,8.83
2018-03-22T23:17:23.861Z,6.97
2018-03-22T23:19:53.364Z,7.73
2018-03-22T23:22:20.900Z,9.80
2018-03-22T23:24:48.639Z,6.67
2018-03-22T23:27:16.193Z,6.93
2018-03-22T23:29:43.785Z,6.60
2018-03-22T23:32:11.325Z,6.63
2018-03-22T23:34:38.922Z,7.10
2018-03-22T23:37:07.414Z,6.17
2018-03-22T23:39:34.997Z,6.17
2018-03-22T23:42:02.606Z,6.53
2018-03-22T23:44:31.733Z,5.13
2018-03-22T23:46:59.336Z,6.27
2018-03-22T23:49:26.905Z,6.77
2018-03-22T23:51:55.443Z,5.33
2018-03-22T23:54:23.881Z,5.93
2018-03-22T23:56:52.036Z,6.07
2018-03-22T23:59:20.856Z,5.27
